Date,TemperatureHighF,TemperatureAvgF,TemperatureLowF,DewpointHighF,DewpointAvgF,DewpointLowF,HumidityHigh,HumidityAvg,HumidityLow,PressureMaxIn,PressureMinIn,WindSpeedMaxMPH,WindSpeedAvgMPH,GustSpeedMaxMPH,PrecipitationSumIn
2013-3-1,43.9,39.9,36.7,43.9,39.6,34.7,100,99,87,30.33,30.27,12,4,22,0.00
2013-3-2,41.0,37.1,32.4,41.0,37.1,32.2,100,100,100,30.33,30.20,11,2,13,0.02
2013-3-3,45.3,41.6,32.4,45.3,41.6,32.4,100,100,100,30.22,30.02,10,3,15,0.00
2013-3-4,51.6,38.3,31.8,51.6,38.3,31.8,100,100,100,30.03,29.66,10,3,13,0.00
2013-3-5,58.8,44.5,32.2,58.8,44.5,32.2,100,100,94,29.66,29.50,9,2,9,0.00
2013-3-6,45.1,43.5,42.4,45.1,43.5,42.4,100,100,100,29.49,29.45,5,1,5,0.00
2013-3-7,52.5,49.3,46.9,52.5,39.4,33.7,100,69,59,29.42,29.30,7,2,9,0.18
2013-3-8,50.5,49.2,47.7,47.5,43.9,38.7,94,82,66,29.47,29.29,5,1,5,0.51
2013-3-9,49.5,46.1,39.9,49.5,45.3,39.6,100,97,73,29.59,29.45,9,2,12,0.02
2013-3-10,39.9,37.1,34.2,39.9,37.1,34.0,100,100,100,29.65,29.56,15,6,24,0.00
2013-3-11,34.2,30.7,28.6,34.2,30.7,28.6,100,100,100,29.66,29.60,19,9,33,0.00
2013-3-12,37.9,32.8,28.2,37.9,32.8,28.2,100,100,100,29.76,29.62,21,9,33,0.04
2013-3-13,43.3,36.8,31.5,43.3,36.8,31.5,100,100,100,29.89,29.72,14,2,19,0.02
2013-3-14,44.2,35.8,27.5,43.9,35.8,27.5,100,100,100,29.97,29.88,9,1,10,0.00
2013-3-15,45.1,41.6,34.3,45.1,41.6,34.3,100,100,94,29.88,29.52,18,7,31,0.18
2013-3-16,45.5,43.5,40.6,45.5,43.2,37.5,100,99,80,29.53,29.24,18,9,29,0.52
2013-3-17,44.4,40.4,33.1,44.4,40.0,33.1,100,98,87,29.28,29.08,11,3,15,0.46
2013-3-18,43.7,37.7,31.3,43.5,37.3,31.3,100,99,87,29.29,29.14,8,1,8,0.61
2013-3-19,50.0,41.5,36.1,49.8,41.5,36.1,100,100,94,29.43,29.28,9,2,10,0.00
2013-3-20,41.5,36.9,35.2,41.5,36.9,35.2,100,100,100,29.59,29.42,10,2,11,0.00
2013-3-28,39.7,36.9,33.6,39.6,36.9,33.6,100,100,100,30.00,29.93,14,4,18,0.00
2013-3-29,42.4,35.1,28.9,42.1,35.1,28.8,100,100,100,29.98,29.83,13,4,21,0.00
2013-3-30,41.4,35.9,30.6,41.4,35.9,30.4,100,100,100,30.03,29.82,11,4,18,0.00
2013-3-31,41.7,34.9,27.5,41.5,34.9,27.5,100,100,100,30.04,29.95,12,3,17,0.00